ADDS TAF Data INFO
IDs: Format: Raw Decoded Include METARs

Data at: 1129 UTC 23 Jan 2018

KHOB 231115Z AUTO 31008KT 10SM CLR M06/M17 A3018 RMK AO2

KHOB 231121Z 2312/2412 VRB05KT P6SM SCT250